sensor_id;sensor_type;location;lat;lon;timestamp;pressure;altitude;pressure_sealevel;temperature;humidity
71795;BME280;59641;45.188;5.712;2023-03-03T00:00:41;99398.13;;;9.35;45.87
71795;BME280;59641;45.188;5.712;2023-03-03T00:03:07;99395.06;;;9.32;45.88
71795;BME280;59641;45.188;5.712;2023-03-03T00:05:34;99389.91;;;9.30;45.93
71795;BME280;59641;45.188;5.712;2023-03-03T00:08:00;99405.16;;;9.30;46.04
71795;BME280;59641;45.188;5.712;2023-03-03T00:10:25;99400.22;;;9.27;46.29
71795;BME280;59641;45.188;5.712;2023-03-03T00:12:51;99397.75;;;9.25;46.19
71795;BME280;59641;45.188;5.712;2023-03-03T00:15:19;99402.28;;;9.25;46.14
71795;BME280;59641;45.188;5.712;2023-03-03T00:17:45;99392.81;;;9.22;46.05
71795;BME280;59641;45.188;5.712;2023-03-03T00:20:33;99394.25;;;9.18;46.13
71795;BME280;59641;45.188;5.712;2023-03-03T00:23:19;99399.22;;;9.14;46.23
71795;BME280;59641;45.188;5.712;2023-03-03T00:25:49;99397.78;;;9.12;46.22
71795;BME280;59641;45.188;5.712;2023-03-03T00:28:29;99394.50;;;9.10;46.41
71795;BME280;59641;45.188;5.712;2023-03-03T00:30:57;99394.69;;;9.08;46.45
71795;BME280;59641;45.188;5.712;2023-03-03T00:33:29;99400.06;;;9.08;46.39
71795;BME280;59641;45.188;5.712;2023-03-03T00:36:09;99397.59;;;9.07;46.46
71795;BME280;59641;45.188;5.712;2023-03-03T00:38:46;99410.13;;;9.06;46.44
71795;BME280;59641;45.188;5.712;2023-03-03T00:41:30;99407.06;;;9.09;46.63
71795;BME280;59641;45.188;5.712;2023-03-03T00:43:56;99407.06;;;9.09;46.64
71795;BME280;59641;45.188;5.712;2023-03-03T00:46:22;99408.91;;;9.09;46.64
71795;BME280;59641;45.188;5.712;2023-03-03T00:48:49;99403.53;;;9.09;46.58
71795;BME280;59641;45.188;5.712;2023-03-03T00:51:27;99413.25;;;9.10;46.70
71795;BME280;59641;45.188;5.712;2023-03-03T00:53:54;99402.97;;;9.07;46.56
71795;BME280;59641;45.188;5.712;2023-03-03T00:56:20;99417.34;;;9.06;46.49
71795;BME280;59641;45.188;5.712;2023-03-03T00:58:46;99414.69;;;9.06;46.66
71795;BME280;59641;45.188;5.712;2023-03-03T01:01:15;99417.34;;;9.06;46.31
71795;BME280;59641;45.188;5.712;2023-03-03T01:03:41;99411.19;;;9.05;46.72
71795;BME280;59641;45.188;5.712;2023-03-03T01:06:06;99420.03;;;9.06;46.73
71795;BME280;59641;45.188;5.712;2023-03-03T01:08:32;99414.69;;;9.06;46.74
71795;BME280;59641;45.188;5.712;2023-03-03T01:11:02;99420.03;;;9.06;46.82
71795;BME280;59641;45.188;5.712;2023-03-03T01:13:31;99423.53;;;9.06;46.63
71795;BME280;59641;45.188;5.712;2023-03-03T01:15:58;99421.88;;;9.05;46.75
71795;BME280;59641;45.188;5.712;2023-03-03T01:18:24;99427.25;;;9.05;46.72
71795;BME280;59641;45.188;5.712;2023-03-03T01:20:49;99419.22;;;9.05;46.72
71795;BME280;59641;45.188;5.712;2023-03-03T01:23:24;99420.03;;;9.06;46.79
71795;BME280;59641;45.188;5.712;2023-03-03T01:25:50;99417.56;;;9.04;46.84
71795;BME280;59641;45.188;5.712;2023-03-03T01:28:16;99425.56;;;9.04;46.90
71795;BME280;59641;45.188;5.712;2023-03-03T01:30:41;99427.25;;;9.05;46.78
71795;BME280;59641;45.188;5.712;2023-03-03T01:33:07;99430.13;;;9.04;46.91
71795;BME280;59641;45.188;5.712;2023-03-03T01:35:32;99431.78;;;9.05;46.86
71795;BME280;59641;45.188;5.712;2023-03-03T01:38:00;99428.47;;;9.03;46.71
71795;BME280;59641;45.188;5.712;2023-03-03T01:40:29;99425.19;;;9.01;46.86
71795;BME280;59641;45.188;5.712;2023-03-03T01:42:54;99423.56;;;9.00;46.85
71795;BME280;59641;45.188;5.712;2023-03-03T01:48:18;99435.91;;;9.01;46.95
71795;BME280;59641;45.188;5.712;2023-03-03T01:51:06;99433.22;;;9.01;46.80
71795;BME280;59641;45.188;5.712;2023-03-03T01:53:45;99425.19;;;9.01;47.02
71795;BME280;59641;45.188;5.712;2023-03-03T01:56:11;99427.88;;;9.01;46.86
71795;BME280;59641;45.188;5.712;2023-03-03T01:58:41;99423.94;;;9.03;46.84
71795;BME280;59641;45.188;5.712;2023-03-03T02:01:13;99424.16;;;9.02;46.90
71795;BME280;59641;45.188;5.712;2023-03-03T02:03:40;99421.47;;;9.02;46.86
71795;BME280;59641;45.188;5.712;2023-03-03T02:06:10;99425.00;;;9.02;47.00
71795;BME280;59641;45.188;5.712;2023-03-03T02:08:43;99428.47;;;9.03;46.90
71795;BME280;59641;45.188;5.712;2023-03-03T02:11:13;99428.69;;;9.01;46.98
71795;BME280;59641;45.188;5.712;2023-03-03T02:13:39;99427.88;;;9.01;47.01
71795;BME280;59641;45.188;5.712;2023-03-03T02:16:04;99427.88;;;9.01;46.90
71795;BME280;59641;45.188;5.712;2023-03-03T02:18:30;99428.69;;;9.01;46.98
71795;BME280;59641;45.188;5.712;2023-03-03T02:21:13;99425.19;;;9.01;46.86
71795;BME280;59641;45.188;5.712;2023-03-03T02:23:52;99426.00;;;9.01;47.09
71795;BME280;59641;45.188;5.712;2023-03-03T02:26:24;99427.88;;;9.01;46.94
71795;BME280;59641;45.188;5.712;2023-03-03T02:28:50;99434.84;;;9.02;46.97
71795;BME280;59641;45.188;5.712;2023-03-03T02:31:21;99424.38;;;9.00;46.88
71795;BME280;59641;45.188;5.712;2023-03-03T02:33:49;99428.06;;;8.99;47.02
71795;BME280;59641;45.188;5.712;2023-03-03T02:36:25;99416.75;;;8.97;47.00
71795;BME280;59641;45.188;5.712;2023-03-03T02:39:09;99415.91;;;8.96;47.00
71795;BME280;59641;45.188;5.712;2023-03-03T02:41:53;99417.16;;;8.94;46.92
71795;BME280;59641;45.188;5.712;2023-03-03T02:44:25;99420.25;;;8.91;47.00
71795;BME280;59641;45.188;5.712;2023-03-03T02:46:53;99422.13;;;8.90;47.01
71795;BME280;59641;45.188;5.712;2023-03-03T02:49:24;99415.94;;;8.90;47.19
71795;BME280;59641;45.188;5.712;2023-03-03T02:51:50;99420.47;;;8.89;47.08
71795;BME280;59641;45.188;5.712;2023-03-03T02:54:18;99420.69;;;8.88;47.00
71795;BME280;59641;45.188;5.712;2023-03-03T02:56:44;99419.25;;;8.85;47.05
71795;BME280;59641;45.188;5.712;2023-03-03T02:59:10;99419.63;;;8.82;47.04
71795;BME280;59641;45.188;5.712;2023-03-03T03:01:36;99423.78;;;8.78;47.01
71795;BME280;59641;45.188;5.712;2023-03-03T03:04:07;99423.97;;;8.70;47.26
71795;BME280;59641;45.188;5.712;2023-03-03T03:06:33;99418.63;;;8.70;47.32
71795;BME280;59641;45.188;5.712;2023-03-03T03:08:58;99429.53;;;8.68;47.37
71795;BME280;59641;45.188;5.712;2023-03-03T03:11:25;99426.44;;;8.65;47.61
71795;BME280;59641;45.188;5.712;2023-03-03T03:13:50;99428.31;;;8.64;47.53
71795;BME280;59641;45.188;5.712;2023-03-03T03:16:17;99430.97;;;8.64;47.65
71795;BME280;59641;45.188;5.712;2023-03-03T03:18:42;99431.97;;;8.63;47.62
71795;BME280;59641;45.188;5.712;2023-03-03T03:21:09;99434.47;;;8.65;47.85
71795;BME280;59641;45.188;5.712;2023-03-03T03:23:35;99430.97;;;8.64;47.53
71795;BME280;59641;45.188;5.712;2023-03-03T03:26:01;99436.09;;;8.66;47.57
71795;BME280;59641;45.188;5.712;2023-03-03T03:28:26;99429.53;;;8.62;47.64
71795;BME280;59641;45.188;5.712;2023-03-03T03:30:52;99430.78;;;8.59;47.54
71795;BME280;59641;45.188;5.712;2023-03-03T03:33:17;99422.75;;;8.59;47.99
71795;BME280;59641;45.188;5.712;2023-03-03T03:35:42;99429.09;;;8.58;47.80
71795;BME280;59641;45.188;5.712;2023-03-03T03:38:12;99441.47;;;8.59;47.88
71795;BME280;59641;45.188;5.712;2023-03-03T03:40:38;99434.25;;;8.60;47.91
71795;BME280;59641;45.188;5.712;2023-03-03T03:43:04;99433.22;;;8.61;47.68
71795;BME280;59641;45.188;5.712;2023-03-03T03:45:29;99441.47;;;8.59;47.97
71795;BME280;59641;45.188;5.712;2023-03-03T03:47:54;99443.53;;;8.57;47.76
71795;BME280;59641;45.188;5.712;2023-03-03T03:50:20;99448.69;;;8.59;48.01
71795;BME280;59641;45.188;5.712;2023-03-03T03:52:45;99444.16;;;8.59;47.96
71795;BME280;59641;45.188;5.712;2023-03-03T03:55:11;99436.75;;;8.61;48.18
71795;BME280;59641;45.188;5.712;2023-03-03T03:57:37;99431.97;;;8.63;47.85
71795;BME280;59641;45.188;5.712;2023-03-03T04:00:04;99448.88;;;8.64;47.77
71795;BME280;59641;45.188;5.712;2023-03-03T04:02:29;99434.66;;;8.63;48.06
71795;BME280;59641;45.188;5.712;2023-03-03T04:04:55;99435.28;;;8.65;47.95
71795;BME280;59641;45.188;5.712;2023-03-03T04:07:20;99437.13;;;8.65;47.88
71795;BME280;59641;45.188;5.712;2023-03-03T04:09:46;99434.47;;;8.65;47.82
71795;BME280;59641;45.188;5.712;2023-03-03T04:12:11;99443.31;;;8.65;47.92
71795;BME280;59641;45.188;5.712;2023-03-03T04:14:37;99435.50;;;8.64;47.98
71795;BME280;59641;45.188;5.712;2023-03-03T04:17:02;99438.19;;;8.64;48.09
71795;BME280;59641;45.188;5.712;2023-03-03T04:19:27;99433.84;;;8.63;47.92
71795;BME280;59641;45.188;5.712;2023-03-03T04:21:53;99446.41;;;8.62;47.91
71795;BME280;59641;45.188;5.712;2023-03-03T04:24:18;99446.81;;;8.59;47.83
71795;BME280;59641;45.188;5.712;2023-03-03T04:26:44;99449.06;;;8.56;47.87
71795;BME280;59641;45.188;5.712;2023-03-03T04:29:09;99451.34;;;8.52;47.95
71795;BME280;59641;45.188;5.712;2023-03-03T04:31:34;99450.31;;;8.53;47.96
71795;BME280;59641;45.188;5.712;2023-03-03T04:34:00;99447.00;;;8.51;47.88
71795;BME280;59641;45.188;5.712;2023-03-03T04:36:25;99456.88;;;8.50;48.01
71795;BME280;59641;45.188;5.712;2023-03-03T04:38:51;99445.38;;;8.50;48.00
71795;BME280;59641;45.188;5.712;2023-03-03T04:41:16;99453.38;;;8.50;47.95
71795;BME280;59641;45.188;5.712;2023-03-03T04:43:42;99446.19;;;8.50;48.28
71795;BME280;59641;45.188;5.712;2023-03-03T04:46:07;99446.81;;;8.52;48.24
71795;BME280;59641;45.188;5.712;2023-03-03T04:48:33;99448.44;;;8.53;48.19
71795;BME280;59641;45.188;5.712;2023-03-03T04:50:58;99445.78;;;8.53;48.11
71795;BME280;59641;45.188;5.712;2023-03-03T04:53:23;99442.91;;;8.55;48.20
71795;BME280;59641;45.188;5.712;2023-03-03T04:55:50;99446.38;;;8.56;48.18
71795;BME280;59641;45.188;5.712;2023-03-03T04:58:16;99447.22;;;8.56;48.21
71795;BME280;59641;45.188;5.712;2023-03-03T05:00:44;99448.44;;;8.53;48.17
71795;BME280;59641;45.188;5.712;2023-03-03T05:03:11;99449.06;;;8.56;48.30
71795;BME280;59641;45.188;5.712;2023-03-03T05:05:37;99451.53;;;8.57;48.19
71795;BME280;59641;45.188;5.712;2023-03-03T05:08:02;99449.06;;;8.56;48.11
71795;BME280;59641;45.188;5.712;2023-03-03T05:10:27;99447.22;;;8.56;48.18
71795;BME280;59641;45.188;5.712;2023-03-03T05:12:53;99447.44;;;8.55;48.13
71795;BME280;59641;45.188;5.712;2023-03-03T05:15:19;99453.78;;;8.53;48.33
71795;BME280;59641;45.188;5.712;2023-03-03T05:17:45;99451.13;;;8.53;48.41
71795;BME280;59641;45.188;5.712;2023-03-03T05:20:11;99448.44;;;8.53;48.14
71795;BME280;59641;45.188;5.712;2023-03-03T05:22:37;99448.66;;;8.52;48.13
71795;BME280;59641;45.188;5.712;2023-03-03T05:25:03;99454.84;;;8.52;48.22
71795;BME280;59641;45.188;5.712;2023-03-03T05:27:28;99456.69;;;8.52;48.18
71795;BME280;59641;45.188;5.712;2023-03-03T05:29:53;99450.53;;;8.51;48.30
71795;BME280;59641;45.188;5.712;2023-03-03T05:32:19;99457.50;;;8.52;48.32
71795;BME280;59641;45.188;5.712;2023-03-03T05:34:44;99454.63;;;8.54;48.45
71795;BME280;59641;45.188;5.712;2023-03-03T05:37:09;99453.19;;;8.51;48.54
71795;BME280;59641;45.188;5.712;2023-03-03T05:39:35;99455.66;;;8.53;48.42
71795;BME280;59641;45.188;5.712;2023-03-03T05:42:01;99456.69;;;8.52;48.31
71795;BME280;59641;45.188;5.712;2023-03-03T05:44:26;99456.47;;;8.53;48.44
71795;BME280;59641;45.188;5.712;2023-03-03T05:46:52;99453.41;;;8.57;48.23
71795;BME280;59641;45.188;5.712;2023-03-03T05:49:17;99450.94;;;8.55;48.24
71795;BME280;59641;45.188;5.712;2023-03-03T05:51:43;99453.59;;;8.55;48.08
71795;BME280;59641;45.188;5.712;2023-03-03T05:54:08;99453.41;;;8.57;48.36
71795;BME280;59641;45.188;5.712;2023-03-03T05:56:34;99452.56;;;8.56;48.20
71795;BME280;59641;45.188;5.712;2023-03-03T05:58:59;99451.34;;;8.59;48.38
71795;BME280;59641;45.188;5.712;2023-03-03T06:01:24;99457.72;;;8.58;48.41
71795;BME280;59641;45.188;5.712;2023-03-03T06:03:51;99459.56;;;8.57;48.33
71795;BME280;59641;45.188;5.712;2023-03-03T06:06:16;99462.25;;;8.57;48.33
71795;BME280;59641;45.188;5.712;2023-03-03T06:08:43;99458.75;;;8.57;48.31
71795;BME280;59641;45.188;5.712;2023-03-03T06:11:09;99457.72;;;8.58;48.34
71795;BME280;59641;45.188;5.712;2023-03-03T06:13:35;99455.66;;;8.60;48.21
71795;BME280;59641;45.188;5.712;2023-03-03T06:16:00;99461.81;;;8.60;48.18
71795;BME280;59641;45.188;5.712;2023-03-03T06:18:26;99464.31;;;8.62;48.38
71795;BME280;59641;45.188;5.712;2023-03-03T06:20:54;99464.09;;;8.63;48.53
71795;BME280;59641;45.188;5.712;2023-03-03T06:23:20;99476.44;;;8.64;48.28
71795;BME280;59641;45.188;5.712;2023-03-03T06:25:46;99472.72;;;8.65;48.34
71795;BME280;59641;45.188;5.712;2023-03-03T06:28:12;99477.06;;;8.66;48.15
71795;BME280;59641;45.188;5.712;2023-03-03T06:30:38;99480.75;;;8.65;48.30
71795;BME280;59641;45.188;5.712;2023-03-03T06:33:03;99481.56;;;8.66;48.23
71795;BME280;59641;45.188;5.712;2023-03-03T06:35:29;99486.94;;;8.66;48.13
71795;BME280;59641;45.188;5.712;2023-03-03T06:37:54;99488.78;;;8.65;48.28
71795;BME280;59641;45.188;5.712;2023-03-03T06:40:20;99483.44;;;8.65;48.09
71795;BME280;59641;45.188;5.712;2023-03-03T06:42:45;99487.16;;;8.64;48.42
71795;BME280;59641;45.188;5.712;2023-03-03T06:45:11;99486.94;;;8.66;48.37
71795;BME280;59641;45.188;5.712;2023-03-03T06:47:37;99491.06;;;8.68;48.26
71795;BME280;59641;45.188;5.712;2023-03-03T06:50:02;99498.06;;;8.69;48.16
71795;BME280;59641;45.188;5.712;2023-03-03T06:52:28;99495.38;;;8.69;48.36
71795;BME280;59641;45.188;5.712;2023-03-03T06:54:56;99491.88;;;8.69;48.18
71795;BME280;59641;45.188;5.712;2023-03-03T06:57:29;99500.53;;;8.71;48.33
71795;BME280;59641;45.188;5.712;2023-03-03T06:59:59;99506.72;;;8.71;48.22
71795;BME280;59641;45.188;5.712;2023-03-03T07:02:26;99507.53;;;8.72;48.22
71795;BME280;59641;45.188;5.712;2023-03-03T07:04:54;99512.69;;;8.73;48.18
71795;BME280;59641;45.188;5.712;2023-03-03T07:07:22;99510.41;;;8.70;48.38
71795;BME280;59641;45.188;5.712;2023-03-03T07:09:52;99507.13;;;8.68;48.54
71795;BME280;59641;45.188;5.712;2023-03-03T07:12:21;99512.84;;;8.65;48.51
71795;BME280;59641;45.188;5.712;2023-03-03T07:14:51;99514.09;;;8.63;48.85
71795;BME280;59641;45.188;5.712;2023-03-03T07:17:21;99514.31;;;8.61;48.89
71795;BME280;59641;45.188;5.712;2023-03-03T07:19:48;99514.31;;;8.61;48.96
71795;BME280;59641;45.188;5.712;2023-03-03T07:22:23;99517.81;;;8.62;48.88
71795;BME280;59641;45.188;5.712;2023-03-03T07:24:58;99516.56;;;8.58;49.10
71795;BME280;59641;45.188;5.712;2023-03-03T07:27:30;99517.38;;;8.58;48.96
71795;BME280;59641;45.188;5.712;2023-03-03T07:30:21;99520.69;;;8.60;49.15
71795;BME280;59641;45.188;5.712;2023-03-03T07:32:48;99517.19;;;8.60;49.24
71795;BME280;59641;45.188;5.712;2023-03-03T07:35:35;99522.34;;;8.61;49.42
71795;BME280;59641;45.188;5.712;2023-03-03T07:40:54;99522.31;;;8.68;49.43
71795;BME280;59641;45.188;5.712;2023-03-03T07:43:30;99515.56;;;8.72;49.41
71795;BME280;59641;45.188;5.712;2023-03-03T07:48:37;99519.47;;;8.76;49.53
71795;BME280;59641;45.188;5.712;2023-03-03T07:51:35;99520.69;;;8.80;49.41
71795;BME280;59641;45.188;5.712;2023-03-03T07:56:54;99526.66;;;8.82;49.56
71795;BME280;59641;45.188;5.712;2023-03-03T07:59:23;99527.28;;;8.84;49.36
71795;BME280;59641;45.188;5.712;2023-03-03T08:01:54;99530.59;;;8.86;49.29
71795;BME280;59641;45.188;5.712;2023-03-03T08:04:23;99535.53;;;8.89;49.06
71795;BME280;59641;45.188;5.712;2023-03-03T08:06:56;99532.03;;;8.89;49.04
71795;BME280;59641;45.188;5.712;2023-03-03T08:09:29;99543.56;;;8.89;49.34
71795;BME280;59641;45.188;5.712;2023-03-03T08:14:33;99542.13;;;8.93;49.21
71795;BME280;59641;45.188;5.712;2023-03-03T08:16:59;99533.06;;;8.94;49.15
71795;BME280;59641;45.188;5.712;2023-03-03T08:19:25;99536.16;;;8.98;49.12
71795;BME280;59641;45.188;5.712;2023-03-03T08:22:08;99548.72;;;8.98;48.83
71795;BME280;59641;45.188;5.712;2023-03-03T08:24:36;99540.28;;;8.94;49.17
71795;BME280;59641;45.188;5.712;2023-03-03T08:27:01;99539.25;;;8.95;49.18
71795;BME280;59641;45.188;5.712;2023-03-03T08:29:27;99532.88;;;8.96;48.79
71795;BME280;59641;45.188;5.712;2023-03-03T08:31:52;99533.88;;;8.88;49.17
71795;BME280;59641;45.188;5.712;2023-03-03T08:34:17;99533.88;;;8.88;49.15
71795;BME280;59641;45.188;5.712;2023-03-03T08:36:43;99531.41;;;8.87;49.16
71795;BME280;59641;45.188;5.712;2023-03-03T08:39:08;99535.75;;;8.88;49.26
71795;BME280;59641;45.188;5.712;2023-03-03T08:41:34;99526.50;;;8.90;49.14
71795;BME280;59641;45.188;5.712;2023-03-03T08:43:59;99536.38;;;8.90;48.98
71795;BME280;59641;45.188;5.712;2023-03-03T08:46:25;99539.84;;;8.84;49.10
71795;BME280;59641;45.188;5.712;2023-03-03T08:48:50;99543.34;;;8.78;49.27
71795;BME280;59641;45.188;5.712;2023-03-03T08:51:16;99533.47;;;8.78;49.27
71795;BME280;59641;45.188;5.712;2023-03-03T08:53:42;99542.09;;;8.80;49.31
71795;BME280;59641;45.188;5.712;2023-03-03T08:56:07;99538.22;;;8.83;49.37
71795;BME280;59641;45.188;5.712;2023-03-03T08:58:34;99547.69;;;8.85;49.24
71795;BME280;59641;45.188;5.712;2023-03-03T09:00:59;99547.47;;;8.87;49.34
71795;BME280;59641;45.188;5.712;2023-03-03T09:03:25;99545.41;;;8.89;49.20
71795;BME280;59641;45.188;5.712;2023-03-03T09:05:50;99542.75;;;8.89;49.30
71795;BME280;59641;45.188;5.712;2023-03-03T09:08:16;99544.38;;;8.83;49.31
71795;BME280;59641;45.188;5.712;2023-03-03T09:10:41;99541.72;;;8.83;49.32
71795;BME280;59641;45.188;5.712;2023-03-03T09:13:16;99548.69;;;8.84;49.38
71795;BME280;59641;45.188;5.712;2023-03-03T09:15:43;99548.09;;;8.89;49.38
71795;BME280;59641;45.188;5.712;2023-03-03T09:18:19;99537.59;;;8.94;49.17
71795;BME280;59641;45.188;5.712;2023-03-03T09:20:51;99548.50;;;8.99;48.85
71795;BME280;59641;45.188;5.712;2023-03-03T09:28:46;99551.00;;;9.14;48.79
71795;BME280;59641;45.188;5.712;2023-03-03T09:31:23;99552.03;;;9.20;48.57
71795;BME280;59641;45.188;5.712;2023-03-03T09:33:49;99563.97;;;9.24;48.62
71795;BME280;59641;45.188;5.712;2023-03-03T09:38:51;99560.25;;;9.31;48.50
71795;BME280;59641;45.188;5.712;2023-03-03T09:54:51;99563.34;;;9.55;48.21
71795;BME280;59641;45.188;5.712;2023-03-03T09:59:50;99564.97;;;9.63;48.07
71795;BME280;59641;45.188;5.712;2023-03-03T10:05:48;99569.09;;;9.65;48.00
71795;BME280;59641;45.188;5.712;2023-03-03T10:08:41;99564.53;;;9.66;47.88
71795;BME280;59641;45.188;5.712;2023-03-03T10:11:37;99560.63;;;9.62;47.80
71795;BME280;59641;45.188;5.712;2023-03-03T10:14:54;99564.53;;;9.59;47.95
71795;BME280;59641;45.188;5.712;2023-03-03T10:20:17;99562.28;;;9.63;47.76
71795;BME280;59641;45.188;5.712;2023-03-03T10:22:54;99567.22;;;9.66;47.68
71795;BME280;59641;45.188;5.712;2023-03-03T10:25:39;99576.09;;;9.66;47.64
71795;BME280;59641;45.188;5.712;2023-03-03T10:38:49;99567.22;;;9.72;47.49
71795;BME280;59641;45.188;5.712;2023-03-03T10:49:41;99567.78;;;9.88;47.52
71795;BME280;59641;45.188;5.712;2023-03-03T11:00:26;99569.41;;;9.95;47.15
71795;BME280;59641;45.188;5.712;2023-03-03T11:16:33;99547.94;;;10.09;47.15
71795;BME280;59641;45.188;5.712;2023-03-03T11:19:11;99549.56;;;10.10;47.06
71795;BME280;59641;45.188;5.712;2023-03-03T11:22:03;99544.00;;;10.11;47.07
71795;BME280;59641;45.188;5.712;2023-03-03T11:46:12;99519.63;;;10.19;47.02
71795;BME280;59641;45.188;5.712;2023-03-03T11:49:19;99521.06;;;10.22;46.79
71795;BME280;59641;45.188;5.712;2023-03-03T11:51:52;99520.22;;;10.21;46.75
71795;BME280;59641;45.188;5.712;2023-03-03T11:55:29;99520.03;;;10.23;46.91
71795;BME280;59641;45.188;5.712;2023-03-03T11:57:44;99519.59;;;10.26;46.80
71795;BME280;59641;45.188;5.712;2023-03-03T12:00:50;99503.31;;;10.28;46.76
71795;BME280;59641;45.188;5.712;2023-03-03T12:03:28;99505.97;;;10.28;46.70
71795;BME280;59641;45.188;5.712;2023-03-03T12:19:32;99499.56;;;10.35;46.78
71795;BME280;59641;45.188;5.712;2023-03-03T12:22:38;99485.97;;;10.37;46.65
71795;BME280;59641;45.188;5.712;2023-03-03T12:27:51;99484.09;;;10.37;46.51
71795;BME280;59641;45.188;5.712;2023-03-03T12:39:03;99480.66;;;10.55;46.65
71795;BME280;59641;45.188;5.712;2023-03-03T12:54:50;99470.88;;;10.68;46.36
71795;BME280;59641;45.188;5.712;2023-03-03T13:00:22;99481.03;;;10.65;46.29
71795;BME280;59641;45.188;5.712;2023-03-03T13:13:23;99467.06;;;10.50;46.52
71795;BME280;59641;45.188;5.712;2023-03-03T13:16:12;99467.31;;;10.49;46.53
71795;BME280;59641;45.188;5.712;2023-03-03T13:21:27;99475.13;;;10.50;46.60
71795;BME280;59641;45.188;5.712;2023-03-03T13:27:07;99475.34;;;10.49;46.53
71795;BME280;59641;45.188;5.712;2023-03-03T13:30:00;99467.06;;;10.50;46.44
71795;BME280;59641;45.188;5.712;2023-03-03T13:32:47;99469.59;;;10.45;46.59
71795;BME280;59641;45.188;5.712;2023-03-03T13:35:50;99471.66;;;10.43;46.63
71795;BME280;59641;45.188;5.712;2023-03-03T13:38:33;99460.72;;;10.44;46.66
71795;BME280;59641;45.188;5.712;2023-03-03T13:41:30;99469.38;;;10.47;46.50
71795;BME280;59641;45.188;5.712;2023-03-03T13:44:21;99462.78;;;10.42;46.66
71795;BME280;59641;45.188;5.712;2023-03-03T13:46:54;99462.19;;;10.40;46.75
71795;BME280;59641;45.188;5.712;2023-03-03T13:54:47;99465.91;;;10.39;46.87
71795;BME280;59641;45.188;5.712;2023-03-03T14:00:29;99461.53;;;10.45;46.78
71795;BME280;59641;45.188;5.712;2023-03-03T14:05:40;99465.84;;;10.46;46.79
71795;BME280;59641;45.188;5.712;2023-03-03T14:11:01;99461.94;;;10.49;46.80
71795;BME280;59641;45.188;5.712;2023-03-03T14:16:16;99469.31;;;10.53;46.61
71795;BME280;59641;45.188;5.712;2023-03-03T14:18:56;99456.75;;;10.54;46.50
71795;BME280;59641;45.188;5.712;2023-03-03T14:21:31;99454.88;;;10.54;46.61
71795;BME280;59641;45.188;5.712;2023-03-03T14:24:17;99455.88;;;10.60;46.75
71795;BME280;59641;45.188;5.712;2023-03-03T14:26:57;99458.34;;;10.61;46.71
71795;BME280;59641;45.188;5.712;2023-03-03T14:31:58;99449.63;;;10.66;46.58
71795;BME280;59641;45.188;5.712;2023-03-03T14:39:44;99449.16;;;10.76;46.57
71795;BME280;59641;45.188;5.712;2023-03-03T14:42:30;99453.00;;;10.80;46.47
71795;BME280;59641;45.188;5.712;2023-03-03T14:44:57;99449.91;;;10.83;46.25
71795;BME280;59641;45.188;5.712;2023-03-03T14:47:28;99452.34;;;10.84;46.14
71795;BME280;59641;45.188;5.712;2023-03-03T14:49:56;99446.41;;;10.82;46.15
71795;BME280;59641;45.188;5.712;2023-03-03T14:52:27;99436.69;;;10.81;46.24
71795;BME280;59641;45.188;5.712;2023-03-03T14:54:56;99440.00;;;10.83;46.44
71795;BME280;59641;45.188;5.712;2023-03-03T14:57:38;99441.41;;;10.86;46.21
71795;BME280;59641;45.188;5.712;2023-03-03T15:05:26;99443.03;;;10.87;46.18
71795;BME280;59641;45.188;5.712;2023-03-03T15:10:38;99438.13;;;10.84;46.20
71795;BME280;59641;45.188;5.712;2023-03-03T15:13:33;99438.94;;;10.84;46.19
71795;BME280;59641;45.188;5.712;2023-03-03T15:18:26;99428.03;;;10.79;46.11
71795;BME280;59641;45.188;5.712;2023-03-03T15:20:58;99428.84;;;10.80;46.09
71795;BME280;59641;45.188;5.712;2023-03-03T15:23:43;99432.38;;;10.80;46.24
71795;BME280;59641;45.188;5.712;2023-03-03T15:32:19;99424.94;;;10.82;46.28
71795;BME280;59641;45.188;5.712;2023-03-03T15:44:12;99422.91;;;10.78;46.47
71795;BME280;59641;45.188;5.712;2023-03-03T15:46:49;99434.22;;;10.80;46.53
71795;BME280;59641;45.188;5.712;2023-03-03T15:54:55;99422.25;;;10.82;46.45
71795;BME280;59641;45.188;5.712;2023-03-03T16:02:53;99427.84;;;10.81;46.55
71795;BME280;59641;45.188;5.712;2023-03-03T16:05:27;99435.88;;;10.81;46.50
71795;BME280;59641;45.188;5.712;2023-03-03T16:08:01;99426.19;;;10.80;46.56
71795;BME280;59641;45.188;5.712;2023-03-03T16:13:01;99430.72;;;10.79;46.41
71795;BME280;59641;45.188;5.712;2023-03-03T16:15:50;99429.91;;;10.79;46.55
71795;BME280;59641;45.188;5.712;2023-03-03T16:21:38;99428.84;;;10.80;46.55
71795;BME280;59641;45.188;5.712;2023-03-03T16:25:08;99438.56;;;10.81;46.55
71795;BME280;59641;45.188;5.712;2023-03-03T16:32:33;99448.34;;;10.75;46.61
71795;BME280;59641;45.188;5.712;2023-03-03T16:35:24;99450.00;;;10.70;46.68
71795;BME280;59641;45.188;5.712;2023-03-03T16:38:08;99443.81;;;10.69;46.49
71795;BME280;59641;45.188;5.712;2023-03-03T16:40:53;99451.28;;;10.67;46.50
71795;BME280;59641;45.188;5.712;2023-03-03T16:43:57;99460.38;;;10.66;46.53
71795;BME280;59641;45.188;5.712;2023-03-03T16:49:07;99463.88;;;10.66;46.54
71795;BME280;59641;45.188;5.712;2023-03-03T16:51:42;99469.84;;;10.69;46.51
71795;BME280;59641;45.188;5.712;2023-03-03T16:57:33;99473.38;;;10.62;46.50
71795;BME280;59641;45.188;5.712;2023-03-03T17:10:59;99494.06;;;10.55;46.61
71795;BME280;59641;45.188;5.712;2023-03-03T17:17:06;99497.38;;;10.57;46.75
71795;BME280;59641;45.188;5.712;2023-03-03T17:21:34;99502.28;;;10.60;46.67
71795;BME280;59641;45.188;5.712;2023-03-03T17:24:22;99507.47;;;10.62;46.61
71795;BME280;59641;45.188;5.712;2023-03-03T17:37:38;99508.06;;;10.64;46.33
71795;BME280;59641;45.188;5.712;2023-03-03T17:40:22;99514.25;;;10.64;46.28
71795;BME280;59641;45.188;5.712;2023-03-03T17:45:41;99521.47;;;10.64;46.35
71795;BME280;59641;45.188;5.712;2023-03-03T17:56:22;99535.53;;;10.59;46.22
71795;BME280;59641;45.188;5.712;2023-03-03T18:04:26;99552.50;;;10.53;46.33
71795;BME280;59641;45.188;5.712;2023-03-03T18:07:33;99554.78;;;10.50;46.13
71795;BME280;59641;45.188;5.712;2023-03-03T18:21:14;99572.00;;;10.29;46.25
71795;BME280;59641;45.188;5.712;2023-03-03T18:23:45;99571.19;;;10.28;46.34
71795;BME280;59641;45.188;5.712;2023-03-03T18:26:37;99576.56;;;10.28;46.45